sensor_id;sensor_type;location;lat;lon;timestamp;P1;durP1;ratioP1;P2;durP2;ratioP2
58196;SDS011;43999;51.660;5.616;2022-07-23T00:00:30;8.02;;;5.60;;
58196;SDS011;43999;51.660;5.616;2022-07-23T00:03:04;6.55;;;5.10;;
58196;SDS011;43999;51.660;5.616;2022-07-23T00:05:32;7.70;;;6.60;;
58196;SDS011;43999;51.660;5.616;2022-07-23T00:08:02;10.20;;;6.18;;
58196;SDS011;43999;51.660;5.616;2022-07-23T00:10:31;8.07;;;6.75;;
58196;SDS011;43999;51.660;5.616;2022-07-23T00:13:00;9.27;;;6.32;;
58196;SDS011;43999;51.660;5.616;2022-07-23T00:15:27;8.57;;;6.25;;
58196;SDS011;43999;51.660;5.616;2022-07-23T00:17:55;8.95;;;6.57;;
58196;SDS011;43999;51.660;5.616;2022-07-23T00:20:22;8.25;;;6.10;;
58196;SDS011;43999;51.660;5.616;2022-07-23T00:22:50;6.30;;;5.55;;
58196;SDS011;43999;51.660;5.616;2022-07-23T00:25:23;7.57;;;6.85;;
58196;SDS011;43999;51.660;5.616;2022-07-23T00:27:56;6.40;;;5.53;;
58196;SDS011;43999;51.660;5.616;2022-07-23T00:30:26;5.72;;;4.65;;
58196;SDS011;43999;51.660;5.616;2022-07-23T00:33:02;5.50;;;4.57;;
58196;SDS011;43999;51.660;5.616;2022-07-23T00:35:35;5.47;;;4.80;;
58196;SDS011;43999;51.660;5.616;2022-07-23T00:38:10;8.43;;;5.40;;
58196;SDS011;43999;51.660;5.616;2022-07-23T00:40:38;7.00;;;4.70;;
58196;SDS011;43999;51.660;5.616;2022-07-23T00:43:06;5.43;;;4.82;;
58196;SDS011;43999;51.660;5.616;2022-07-23T00:45:34;5.50;;;5.05;;
58196;SDS011;43999;51.660;5.616;2022-07-23T00:48:01;5.40;;;4.90;;
58196;SDS011;43999;51.660;5.616;2022-07-23T00:50:31;10.23;;;5.57;;
58196;SDS011;43999;51.660;5.616;2022-07-23T00:52:58;7.93;;;5.55;;
58196;SDS011;43999;51.660;5.616;2022-07-23T00:55:25;9.32;;;5.60;;
58196;SDS011;43999;51.660;5.616;2022-07-23T00:57:53;6.60;;;4.60;;
58196;SDS011;43999;51.660;5.616;2022-07-23T01:00:24;7.25;;;5.28;;
58196;SDS011;43999;51.660;5.616;2022-07-23T01:02:51;5.18;;;4.68;;
58196;SDS011;43999;51.660;5.616;2022-07-23T01:05:18;7.53;;;4.95;;
58196;SDS011;43999;51.660;5.616;2022-07-23T01:07:49;6.53;;;4.90;;
58196;SDS011;43999;51.660;5.616;2022-07-23T01:10:21;7.32;;;5.88;;
58196;SDS011;43999;51.660;5.616;2022-07-23T01:13:08;6.13;;;5.53;;
58196;SDS011;43999;51.660;5.616;2022-07-23T01:15:38;6.05;;;5.50;;
58196;SDS011;43999;51.660;5.616;2022-07-23T01:18:06;6.15;;;4.88;;
58196;SDS011;43999;51.660;5.616;2022-07-23T01:20:36;5.97;;;5.47;;
58196;SDS011;43999;51.660;5.616;2022-07-23T01:23:04;6.20;;;5.55;;
58196;SDS011;43999;51.660;5.616;2022-07-23T01:25:32;8.07;;;6.00;;
58196;SDS011;43999;51.660;5.616;2022-07-23T01:28:05;7.85;;;5.35;;
58196;SDS011;43999;51.660;5.616;2022-07-23T01:30:32;7.53;;;5.97;;
58196;SDS011;43999;51.660;5.616;2022-07-23T01:33:03;6.40;;;5.47;;
58196;SDS011;43999;51.660;5.616;2022-07-23T01:35:30;7.85;;;5.47;;
58196;SDS011;43999;51.660;5.616;2022-07-23T01:38:02;6.60;;;6.00;;
58196;SDS011;43999;51.660;5.616;2022-07-23T01:40:29;7.60;;;6.00;;
58196;SDS011;43999;51.660;5.616;2022-07-23T01:42:57;6.43;;;5.57;;
58196;SDS011;43999;51.660;5.616;2022-07-23T01:45:26;6.85;;;6.13;;
58196;SDS011;43999;51.660;5.616;2022-07-23T01:47:54;12.05;;;5.75;;
58196;SDS011;43999;51.660;5.616;2022-07-23T01:50:22;8.88;;;5.93;;
58196;SDS011;43999;51.660;5.616;2022-07-23T01:53:03;7.40;;;5.97;;
58196;SDS011;43999;51.660;5.616;2022-07-23T01:55:30;7.22;;;6.47;;
58196;SDS011;43999;51.660;5.616;2022-07-23T01:57:57;8.50;;;5.97;;
58196;SDS011;43999;51.660;5.616;2022-07-23T02:00:28;8.52;;;6.25;;
58196;SDS011;43999;51.660;5.616;2022-07-23T02:02:55;8.70;;;5.95;;
58196;SDS011;43999;51.660;5.616;2022-07-23T02:05:25;7.57;;;6.72;;
58196;SDS011;43999;51.660;5.616;2022-07-23T02:07:55;7.32;;;6.63;;
58196;SDS011;43999;51.660;5.616;2022-07-23T02:10:24;6.80;;;6.20;;
58196;SDS011;43999;51.660;5.616;2022-07-23T02:12:53;6.97;;;6.15;;
58196;SDS011;43999;51.660;5.616;2022-07-23T02:15:20;8.50;;;6.20;;
58196;SDS011;43999;51.660;5.616;2022-07-23T02:17:47;9.52;;;6.45;;
58196;SDS011;43999;51.660;5.616;2022-07-23T02:20:15;9.18;;;7.05;;
58196;SDS011;43999;51.660;5.616;2022-07-23T02:22:43;7.28;;;6.65;;
58196;SDS011;43999;51.660;5.616;2022-07-23T02:25:10;7.00;;;6.32;;
58196;SDS011;43999;51.660;5.616;2022-07-23T02:27:37;10.70;;;6.57;;
58196;SDS011;43999;51.660;5.616;2022-07-23T02:30:05;10.13;;;6.35;;
58196;SDS011;43999;51.660;5.616;2022-07-23T02:32:34;8.35;;;7.28;;
58196;SDS011;43999;51.660;5.616;2022-07-23T02:35:02;14.25;;;7.72;;
58196;SDS011;43999;51.660;5.616;2022-07-23T02:37:31;7.90;;;6.45;;
58196;SDS011;43999;51.660;5.616;2022-07-23T02:39:59;8.77;;;7.35;;
58196;SDS011;43999;51.660;5.616;2022-07-23T02:42:29;12.55;;;8.25;;
58196;SDS011;43999;51.660;5.616;2022-07-23T02:44:57;9.45;;;6.55;;
58196;SDS011;43999;51.660;5.616;2022-07-23T02:47:24;7.90;;;7.15;;
58196;SDS011;43999;51.660;5.616;2022-07-23T02:49:51;9.43;;;7.72;;
58196;SDS011;43999;51.660;5.616;2022-07-23T02:52:19;9.43;;;6.93;;
58196;SDS011;43999;51.660;5.616;2022-07-23T02:54:47;9.27;;;6.95;;
58196;SDS011;43999;51.660;5.616;2022-07-23T02:57:15;7.70;;;6.90;;
58196;SDS011;43999;51.660;5.616;2022-07-23T02:59:42;8.02;;;6.97;;
58196;SDS011;43999;51.660;5.616;2022-07-23T03:02:09;8.27;;;7.43;;
58196;SDS011;43999;51.660;5.616;2022-07-23T03:04:37;9.57;;;7.45;;
58196;SDS011;43999;51.660;5.616;2022-07-23T03:07:04;8.27;;;7.18;;
58196;SDS011;43999;51.660;5.616;2022-07-23T03:09:32;9.43;;;6.97;;
58196;SDS011;43999;51.660;5.616;2022-07-23T03:11:59;8.15;;;7.35;;
58196;SDS011;43999;51.660;5.616;2022-07-23T03:14:26;9.18;;;7.82;;
58196;SDS011;43999;51.660;5.616;2022-07-23T03:16:55;7.93;;;7.07;;
58196;SDS011;43999;51.660;5.616;2022-07-23T03:19:22;8.15;;;7.00;;
58196;SDS011;43999;51.660;5.616;2022-07-23T03:21:50;10.52;;;7.78;;
58196;SDS011;43999;51.660;5.616;2022-07-23T03:24:18;9.35;;;8.40;;
58196;SDS011;43999;51.660;5.616;2022-07-23T03:26:45;9.77;;;8.13;;
58196;SDS011;43999;51.660;5.616;2022-07-23T03:29:12;10.75;;;8.48;;
58196;SDS011;43999;51.660;5.616;2022-07-23T03:31:41;8.00;;;6.68;;
58196;SDS011;43999;51.660;5.616;2022-07-23T03:34:08;10.40;;;7.78;;
58196;SDS011;43999;51.660;5.616;2022-07-23T03:36:36;7.88;;;7.07;;
58196;SDS011;43999;51.660;5.616;2022-07-23T03:39:04;9.20;;;7.57;;
58196;SDS011;43999;51.660;5.616;2022-07-23T03:41:38;10.43;;;7.43;;
58196;SDS011;43999;51.660;5.616;2022-07-23T03:44:05;8.70;;;7.90;;
58196;SDS011;43999;51.660;5.616;2022-07-23T03:46:32;9.15;;;8.10;;
58196;SDS011;43999;51.660;5.616;2022-07-23T03:48:59;8.93;;;7.95;;
58196;SDS011;43999;51.660;5.616;2022-07-23T03:51:27;11.25;;;8.20;;
58196;SDS011;43999;51.660;5.616;2022-07-23T03:53:55;8.50;;;7.30;;
58196;SDS011;43999;51.660;5.616;2022-07-23T03:56:22;8.93;;;8.00;;
58196;SDS011;43999;51.660;5.616;2022-07-23T03:58:50;9.48;;;7.93;;
58196;SDS011;43999;51.660;5.616;2022-07-23T04:01:17;8.85;;;7.82;;
58196;SDS011;43999;51.660;5.616;2022-07-23T04:03:45;9.88;;;7.63;;
58196;SDS011;43999;51.660;5.616;2022-07-23T04:06:13;8.90;;;8.10;;
58196;SDS011;43999;51.660;5.616;2022-07-23T04:08:40;9.82;;;8.10;;
58196;SDS011;43999;51.660;5.616;2022-07-23T04:11:07;9.45;;;8.40;;
58196;SDS011;43999;51.660;5.616;2022-07-23T04:13:35;9.10;;;8.30;;
58196;SDS011;43999;51.660;5.616;2022-07-23T04:16:03;9.32;;;8.20;;
58196;SDS011;43999;51.660;5.616;2022-07-23T04:18:31;10.13;;;8.35;;
58196;SDS011;43999;51.660;5.616;2022-07-23T04:21:18;10.23;;;8.77;;
58196;SDS011;43999;51.660;5.616;2022-07-23T04:23:47;9.90;;;8.90;;
58196;SDS011;43999;51.660;5.616;2022-07-23T04:26:14;10.93;;;8.73;;
58196;SDS011;43999;51.660;5.616;2022-07-23T04:28:45;8.93;;;8.00;;
58196;SDS011;43999;51.660;5.616;2022-07-23T04:31:12;10.63;;;8.63;;
58196;SDS011;43999;51.660;5.616;2022-07-23T04:33:40;9.52;;;8.63;;
58196;SDS011;43999;51.660;5.616;2022-07-23T04:36:08;12.55;;;9.23;;
58196;SDS011;43999;51.660;5.616;2022-07-23T04:38:35;11.15;;;8.15;;
58196;SDS011;43999;51.660;5.616;2022-07-23T04:41:03;10.70;;;8.23;;
58196;SDS011;43999;51.660;5.616;2022-07-23T04:43:31;9.95;;;8.90;;
58196;SDS011;43999;51.660;5.616;2022-07-23T04:45:58;9.20;;;8.30;;
58196;SDS011;43999;51.660;5.616;2022-07-23T04:48:27;8.48;;;7.68;;
58196;SDS011;43999;51.660;5.616;2022-07-23T04:51:03;11.40;;;7.70;;
58196;SDS011;43999;51.660;5.616;2022-07-23T04:53:31;9.57;;;8.48;;
58196;SDS011;43999;51.660;5.616;2022-07-23T04:55:59;11.07;;;9.55;;
58196;SDS011;43999;51.660;5.616;2022-07-23T04:58:28;9.55;;;8.57;;
58196;SDS011;43999;51.660;5.616;2022-07-23T05:00:58;9.90;;;8.90;;
58196;SDS011;43999;51.660;5.616;2022-07-23T05:03:26;9.00;;;8.20;;
58196;SDS011;43999;51.660;5.616;2022-07-23T05:05:54;10.00;;;9.00;;
58196;SDS011;43999;51.660;5.616;2022-07-23T05:08:21;9.52;;;8.52;;
58196;SDS011;43999;51.660;5.616;2022-07-23T05:10:52;8.90;;;7.95;;
58196;SDS011;43999;51.660;5.616;2022-07-23T05:13:20;10.18;;;8.85;;
58196;SDS011;43999;51.660;5.616;2022-07-23T05:15:50;9.80;;;8.65;;
58196;SDS011;43999;51.660;5.616;2022-07-23T05:18:18;15.07;;;7.70;;
58196;SDS011;43999;51.660;5.616;2022-07-23T05:20:45;9.93;;;8.27;;
58196;SDS011;43999;51.660;5.616;2022-07-23T05:23:17;10.68;;;8.98;;
58196;SDS011;43999;51.660;5.616;2022-07-23T05:25:46;12.27;;;10.00;;
58196;SDS011;43999;51.660;5.616;2022-07-23T05:28:15;9.60;;;8.70;;
58196;SDS011;43999;51.660;5.616;2022-07-23T05:30:47;10.63;;;9.52;;
58196;SDS011;43999;51.660;5.616;2022-07-23T05:33:18;8.70;;;7.65;;
58196;SDS011;43999;51.660;5.616;2022-07-23T05:35:46;11.93;;;9.43;;
58196;SDS011;43999;51.660;5.616;2022-07-23T05:38:27;11.20;;;8.60;;
58196;SDS011;43999;51.660;5.616;2022-07-23T05:40:57;9.50;;;8.50;;
58196;SDS011;43999;51.660;5.616;2022-07-23T05:43:26;10.57;;;9.25;;
58196;SDS011;43999;51.660;5.616;2022-07-23T05:45:55;11.90;;;10.35;;
58196;SDS011;43999;51.660;5.616;2022-07-23T05:48:23;9.13;;;8.20;;
58196;SDS011;43999;51.660;5.616;2022-07-23T05:51:11;10.60;;;8.60;;
58196;SDS011;43999;51.660;5.616;2022-07-23T05:53:38;11.57;;;9.57;;
58196;SDS011;43999;51.660;5.616;2022-07-23T05:56:13;11.98;;;9.05;;
58196;SDS011;43999;51.660;5.616;2022-07-23T05:58:42;10.68;;;9.60;;
58196;SDS011;43999;51.660;5.616;2022-07-23T06:01:10;12.20;;;9.20;;
58196;SDS011;43999;51.660;5.616;2022-07-23T06:03:45;10.43;;;8.23;;
58196;SDS011;43999;51.660;5.616;2022-07-23T06:06:12;8.95;;;8.02;;
58196;SDS011;43999;51.660;5.616;2022-07-23T06:08:41;12.98;;;9.30;;
58196;SDS011;43999;51.660;5.616;2022-07-23T06:11:08;9.88;;;8.93;;
58196;SDS011;43999;51.660;5.616;2022-07-23T06:13:36;9.77;;;8.77;;
58196;SDS011;43999;51.660;5.616;2022-07-23T06:16:03;9.45;;;7.25;;
58196;SDS011;43999;51.660;5.616;2022-07-23T06:18:31;8.43;;;7.43;;
58196;SDS011;43999;51.660;5.616;2022-07-23T06:20:58;10.60;;;7.93;;
58196;SDS011;43999;51.660;5.616;2022-07-23T06:23:26;7.78;;;6.95;;
58196;SDS011;43999;51.660;5.616;2022-07-23T06:25:54;7.10;;;6.43;;
58196;SDS011;43999;51.660;5.616;2022-07-23T06:28:21;7.60;;;6.63;;
58196;SDS011;43999;51.660;5.616;2022-07-23T06:30:49;10.15;;;6.43;;
58196;SDS011;43999;51.660;5.616;2022-07-23T06:33:17;8.63;;;7.30;;
58196;SDS011;43999;51.660;5.616;2022-07-23T06:35:44;6.63;;;5.95;;
58196;SDS011;43999;51.660;5.616;2022-07-23T06:38:11;7.47;;;5.63;;
58196;SDS011;43999;51.660;5.616;2022-07-23T06:40:41;7.20;;;5.88;;
58196;SDS011;43999;51.660;5.616;2022-07-23T06:43:10;5.97;;;4.88;;
58196;SDS011;43999;51.660;5.616;2022-07-23T06:45:37;8.27;;;6.25;;
58196;SDS011;43999;51.660;5.616;2022-07-23T06:48:04;6.13;;;5.30;;
58196;SDS011;43999;51.660;5.616;2022-07-23T06:50:33;8.25;;;5.80;;
58196;SDS011;43999;51.660;5.616;2022-07-23T06:53:00;7.40;;;6.68;;
58196;SDS011;43999;51.660;5.616;2022-07-23T06:55:28;9.40;;;5.47;;
58196;SDS011;43999;51.660;5.616;2022-07-23T06:57:55;6.13;;;5.20;;
58196;SDS011;43999;51.660;5.616;2022-07-23T07:00:23;6.43;;;5.60;;
58196;SDS011;43999;51.660;5.616;2022-07-23T07:02:53;6.40;;;5.80;;
58196;SDS011;43999;51.660;5.616;2022-07-23T07:05:21;7.57;;;4.75;;
58196;SDS011;43999;51.660;5.616;2022-07-23T07:07:49;9.18;;;3.92;;
58196;SDS011;43999;51.660;5.616;2022-07-23T07:10:16;5.53;;;4.25;;
58196;SDS011;43999;51.660;5.616;2022-07-23T07:12:44;5.05;;;3.88;;
58196;SDS011;43999;51.660;5.616;2022-07-23T07:15:12;6.80;;;4.63;;
58196;SDS011;43999;51.660;5.616;2022-07-23T07:17:39;6.45;;;3.90;;
58196;SDS011;43999;51.660;5.616;2022-07-23T07:20:09;6.65;;;4.05;;
58196;SDS011;43999;51.660;5.616;2022-07-23T07:22:37;7.72;;;4.35;;
58196;SDS011;43999;51.660;5.616;2022-07-23T07:25:06;6.45;;;4.45;;
58196;SDS011;43999;51.660;5.616;2022-07-23T07:27:34;6.60;;;5.07;;
58196;SDS011;43999;51.660;5.616;2022-07-23T07:30:02;5.57;;;4.32;;
58196;SDS011;43999;51.660;5.616;2022-07-23T07:32:32;6.32;;;3.80;;
58196;SDS011;43999;51.660;5.616;2022-07-23T07:37:46;7.35;;;4.50;;
58196;SDS011;43999;51.660;5.616;2022-07-23T07:40:13;4.57;;;3.47;;
58196;SDS011;43999;51.660;5.616;2022-07-23T07:42:44;7.85;;;4.13;;
58196;SDS011;43999;51.660;5.616;2022-07-23T07:45:14;7.97;;;4.30;;
58196;SDS011;43999;51.660;5.616;2022-07-23T07:47:42;6.53;;;3.58;;
58196;SDS011;43999;51.660;5.616;2022-07-23T07:50:09;12.02;;;4.60;;
58196;SDS011;43999;51.660;5.616;2022-07-23T07:52:37;5.40;;;3.90;;
58196;SDS011;43999;51.660;5.616;2022-07-23T07:55:07;6.63;;;4.43;;
58196;SDS011;43999;51.660;5.616;2022-07-23T07:57:36;4.63;;;4.22;;
58196;SDS011;43999;51.660;5.616;2022-07-23T08:00:05;5.22;;;4.30;;
58196;SDS011;43999;51.660;5.616;2022-07-23T08:02:43;5.57;;;4.32;;
58196;SDS011;43999;51.660;5.616;2022-07-23T08:05:21;8.20;;;4.43;;
58196;SDS011;43999;51.660;5.616;2022-07-23T08:07:55;5.97;;;4.15;;
58196;SDS011;43999;51.660;5.616;2022-07-23T08:10:26;6.95;;;3.83;;
58196;SDS011;43999;51.660;5.616;2022-07-23T08:12:55;5.00;;;4.05;;
58196;SDS011;43999;51.660;5.616;2022-07-23T08:15:25;8.48;;;4.22;;
58196;SDS011;43999;51.660;5.616;2022-07-23T08:17:56;9.15;;;3.83;;
58196;SDS011;43999;51.660;5.616;2022-07-23T08:20:24;5.93;;;4.78;;
58196;SDS011;43999;51.660;5.616;2022-07-23T08:22:56;5.00;;;4.53;;
58196;SDS011;43999;51.660;5.616;2022-07-23T08:25:27;4.30;;;3.88;;
58196;SDS011;43999;51.660;5.616;2022-07-23T08:27:58;4.63;;;3.60;;
58196;SDS011;43999;51.660;5.616;2022-07-23T08:30:31;4.95;;;3.97;;
58196;SDS011;43999;51.660;5.616;2022-07-23T08:33:01;5.10;;;3.92;;
58196;SDS011;43999;51.660;5.616;2022-07-23T08:35:35;5.93;;;4.03;;
58196;SDS011;43999;51.660;5.616;2022-07-23T08:38:15;6.47;;;4.35;;
58196;SDS011;43999;51.660;5.616;2022-07-23T08:40:47;6.63;;;4.03;;
58196;SDS011;43999;51.660;5.616;2022-07-23T08:43:24;5.15;;;3.67;;
58196;SDS011;43999;51.660;5.616;2022-07-23T08:45:57;5.00;;;4.20;;
58196;SDS011;43999;51.660;5.616;2022-07-23T08:48:28;7.90;;;4.20;;
58196;SDS011;43999;51.660;5.616;2022-07-23T08:51:00;5.20;;;4.25;;
58196;SDS011;43999;51.660;5.616;2022-07-23T08:53:30;6.93;;;4.30;;
58196;SDS011;43999;51.660;5.616;2022-07-23T08:56:02;5.63;;;3.72;;
58196;SDS011;43999;51.660;5.616;2022-07-23T08:58:33;3.97;;;3.55;;
58196;SDS011;43999;51.660;5.616;2022-07-23T09:01:01;3.97;;;3.58;;
58196;SDS011;43999;51.660;5.616;2022-07-23T09:03:30;5.00;;;3.35;;
58196;SDS011;43999;51.660;5.616;2022-07-23T09:06:02;5.28;;;4.05;;
58196;SDS011;43999;51.660;5.616;2022-07-23T09:08:39;5.18;;;3.92;;
58196;SDS011;43999;51.660;5.616;2022-07-23T09:11:11;5.30;;;3.75;;
58196;SDS011;43999;51.660;5.616;2022-07-23T09:16:26;5.05;;;3.80;;
58196;SDS011;43999;51.660;5.616;2022-07-23T09:19:00;4.68;;;3.50;;
58196;SDS011;43999;51.660;5.616;2022-07-23T09:21:32;4.65;;;4.10;;
58196;SDS011;43999;51.660;5.616;2022-07-23T09:26:45;6.20;;;4.32;;
58196;SDS011;43999;51.660;5.616;2022-07-23T09:29:20;4.70;;;3.78;;
58196;SDS011;43999;51.660;5.616;2022-07-23T09:34:25;4.47;;;4.03;;
58196;SDS011;43999;51.660;5.616;2022-07-23T09:37:14;4.60;;;3.53;;
58196;SDS011;43999;51.660;5.616;2022-07-23T09:39:46;3.78;;;3.25;;
58196;SDS011;43999;51.660;5.616;2022-07-23T09:42:22;5.03;;;4.03;;
58196;SDS011;43999;51.660;5.616;2022-07-23T09:44:53;6.00;;;3.72;;
58196;SDS011;43999;51.660;5.616;2022-07-23T09:47:24;5.00;;;4.50;;
58196;SDS011;43999;51.660;5.616;2022-07-23T09:52:44;5.25;;;3.95;;
58196;SDS011;43999;51.660;5.616;2022-07-23T09:55:16;5.25;;;4.68;;
58196;SDS011;43999;51.660;5.616;2022-07-23T09:57:46;5.13;;;4.53;;
58196;SDS011;43999;51.660;5.616;2022-07-23T10:00:17;4.07;;;3.42;;
58196;SDS011;43999;51.660;5.616;2022-07-23T10:02:46;4.72;;;3.08;;
58196;SDS011;43999;51.660;5.616;2022-07-23T10:05:28;5.57;;;3.25;;
58196;SDS011;43999;51.660;5.616;2022-07-23T10:07:56;6.78;;;3.72;;
58196;SDS011;43999;51.660;5.616;2022-07-23T10:10:46;5.68;;;3.50;;
58196;SDS011;43999;51.660;5.616;2022-07-23T10:13:34;5.15;;;4.43;;
58196;SDS011;43999;51.660;5.616;2022-07-23T10:16:29;5.05;;;3.38;;
58196;SDS011;43999;51.660;5.616;2022-07-23T10:18:57;6.35;;;3.80;;
58196;SDS011;43999;51.660;5.616;2022-07-23T10:24:44;3.75;;;2.95;;
58196;SDS011;43999;51.660;5.616;2022-07-23T10:36:48;4.63;;;3.70;;
58196;SDS011;43999;51.660;5.616;2022-07-23T10:39:31;3.83;;;3.45;;
58196;SDS011;43999;51.660;5.616;2022-07-23T10:42:10;4.28;;;3.88;;
58196;SDS011;43999;51.660;5.616;2022-07-23T10:44:43;6.18;;;3.92;;
58196;SDS011;43999;51.660;5.616;2022-07-23T10:47:29;5.45;;;3.80;;
58196;SDS011;43999;51.660;5.616;2022-07-23T10:50:16;5.70;;;3.38;;
58196;SDS011;43999;51.660;5.616;2022-07-23T10:58:17;3.80;;;3.50;;
58196;SDS011;43999;51.660;5.616;2022-07-23T11:04:05;6.05;;;4.15;;
58196;SDS011;43999;51.660;5.616;2022-07-23T11:22:57;6.93;;;6.03;;
58196;SDS011;43999;51.660;5.616;2022-07-23T11:27:54;6.95;;;6.35;;
58196;SDS011;43999;51.660;5.616;2022-07-23T11:30:43;6.88;;;6.20;;
58196;SDS011;43999;51.660;5.616;2022-07-23T11:35:46;8.98;;;7.05;;
58196;SDS011;43999;51.660;5.616;2022-07-23T11:38:30;6.63;;;6.00;;
58196;SDS011;43999;51.660;5.616;2022-07-23T11:40:58;7.90;;;7.07;;
58196;SDS011;43999;51.660;5.616;2022-07-23T11:43:26;6.05;;;5.45;;
58196;SDS011;43999;51.660;5.616;2022-07-23T11:45:56;8.35;;;5.45;;
58196;SDS011;43999;51.660;5.616;2022-07-23T11:48:28;7.55;;;5.68;;
58196;SDS011;43999;51.660;5.616;2022-07-23T11:51:04;5.80;;;4.85;;
58196;SDS011;43999;51.660;5.616;2022-07-23T11:53:32;7.38;;;6.68;;
58196;SDS011;43999;51.660;5.616;2022-07-23T11:56:07;6.97;;;5.97;;
58196;SDS011;43999;51.660;5.616;2022-07-23T11:58:38;4.85;;;4.10;;
58196;SDS011;43999;51.660;5.616;2022-07-23T12:01:21;4.75;;;4.32;;
58196;SDS011;43999;51.660;5.616;2022-07-23T12:03:51;6.35;;;5.40;;
58196;SDS011;43999;51.660;5.616;2022-07-23T12:06:18;5.53;;;5.00;;
58196;SDS011;43999;51.660;5.616;2022-07-23T12:08:46;7.78;;;5.35;;
58196;SDS011;43999;51.660;5.616;2022-07-23T12:11:13;5.28;;;4.38;;
58196;SDS011;43999;51.660;5.616;2022-07-23T12:13:41;5.82;;;5.22;;
58196;SDS011;43999;51.660;5.616;2022-07-23T12:16:08;5.35;;;4.85;;
58196;SDS011;43999;51.660;5.616;2022-07-23T12:18:35;5.97;;;5.38;;
58196;SDS011;43999;51.660;5.616;2022-07-23T12:21:03;6.00;;;4.47;;
58196;SDS011;43999;51.660;5.616;2022-07-23T12:23:38;5.10;;;4.55;;
58196;SDS011;43999;51.660;5.616;2022-07-23T12:26:06;5.90;;;5.30;;
58196;SDS011;43999;51.660;5.616;2022-07-23T12:28:37;6.68;;;6.07;;
58196;SDS011;43999;51.660;5.616;2022-07-23T12:31:06;7.43;;;6.75;;
58196;SDS011;43999;51.660;5.616;2022-07-23T12:33:34;7.13;;;6.38;;
58196;SDS011;43999;51.660;5.616;2022-07-23T12:36:08;6.03;;;5.38;;
58196;SDS011;43999;51.660;5.616;2022-07-23T12:38:38;9.18;;;5.07;;
58196;SDS011;43999;51.660;5.616;2022-07-23T12:41:15;5.13;;;4.63;;
58196;SDS011;43999;51.660;5.616;2022-07-23T12:43:44;5.35;;;4.65;;
58196;SDS011;43999;51.660;5.616;2022-07-23T12:46:16;4.63;;;4.15;;
58196;SDS011;43999;51.660;5.616;2022-07-23T12:53:59;5.18;;;4.78;;
58196;SDS011;43999;51.660;5.616;2022-07-23T12:56:36;6.38;;;5.10;;
58196;SDS011;43999;51.660;5.616;2022-07-23T12:59:14;7.18;;;4.63;;
58196;SDS011;43999;51.660;5.616;2022-07-23T13:01:45;6.43;;;5.78;;
58196;SDS011;43999;51.660;5.616;2022-07-23T13:04:28;7.00;;;6.30;;
58196;SDS011;43999;51.660;5.616;2022-07-23T13:06:59;8.00;;;5.32;;
58196;SDS011;43999;51.660;5.616;2022-07-23T13:09:31;4.07;;;3.45;;
58196;SDS011;43999;51.660;5.616;2022-07-23T13:12:08;5.30;;;4.80;;
58196;SDS011;43999;51.660;5.616;2022-07-23T13:14:37;4.40;;;3.60;;
58196;SDS011;43999;51.660;5.616;2022-07-23T13:17:08;4.05;;;3.65;;
58196;SDS011;43999;51.660;5.616;2022-07-23T13:19:36;4.97;;;3.80;;
58196;SDS011;43999;51.660;5.616;2022-07-23T13:22:03;5.90;;;4.07;;
58196;SDS011;43999;51.660;5.616;2022-07-23T13:24:35;5.38;;;3.72;;
58196;SDS011;43999;51.660;5.616;2022-07-23T13:27:22;6.60;;;5.13;;
58196;SDS011;43999;51.660;5.616;2022-07-23T13:29:50;5.80;;;5.13;;
58196;SDS011;43999;51.660;5.616;2022-07-23T13:32:19;5.53;;;5.03;;
58196;SDS011;43999;51.660;5.616;2022-07-23T13:34:46;6.57;;;4.68;;
58196;SDS011;43999;51.660;5.616;2022-07-23T13:37:15;6.00;;;5.10;;
58196;SDS011;43999;51.660;5.616;2022-07-23T13:39:44;5.30;;;4.80;;
58196;SDS011;43999;51.660;5.616;2022-07-23T13:42:12;6.22;;;5.63;;
58196;SDS011;43999;51.660;5.616;2022-07-23T13:44:40;5.72;;;5.22;;
58196;SDS011;43999;51.660;5.616;2022-07-23T13:47:07;7.32;;;5.70;;
58196;SDS011;43999;51.660;5.616;2022-07-23T13:49:35;9.15;;;5.90;;
58196;SDS011;43999;51.660;5.616;2022-07-23T13:52:03;5.47;;;4.70;;
58196;SDS011;43999;51.660;5.616;2022-07-23T13:54:33;5.47;;;4.18;;
58196;SDS011;43999;51.660;5.616;2022-07-23T13:57:01;6.93;;;5.28;;
58196;SDS011;43999;51.660;5.616;2022-07-23T13:59:31;5.47;;;4.50;;
58196;SDS011;43999;51.660;5.616;2022-07-23T14:01:58;6.15;;;4.72;;
58196;SDS011;43999;51.660;5.616;2022-07-23T14:04:45;6.18;;;5.68;;
58196;SDS011;43999;51.660;5.616;2022-07-23T14:07:13;5.63;;;5.13;;
58196;SDS011;43999;51.660;5.616;2022-07-23T14:09:42;6.40;;;5.80;;
58196;SDS011;43999;51.660;5.616;2022-07-23T14:12:10;7.82;;;6.35;;
58196;SDS011;43999;51.660;5.616;2022-07-23T14:14:37;5.95;;;5.38;;
58196;SDS011;43999;51.660;5.616;2022-07-23T14:17:05;7.75;;;4.85;;
58196;SDS011;43999;51.660;5.616;2022-07-23T14:19:37;8.40;;;5.35;;
58196;SDS011;43999;51.660;5.616;2022-07-23T14:22:05;7.38;;;5.05;;
58196;SDS011;43999;51.660;5.616;2022-07-23T14:24:32;6.43;;;5.82;;
58196;SDS011;43999;51.660;5.616;2022-07-23T14:27:01;7.90;;;6.45;;
58196;SDS011;43999;51.660;5.616;2022-07-23T14:29:31;7.15;;;5.50;;
58196;SDS011;43999;51.660;5.616;2022-07-23T14:32:00;6.60;;;5.90;;
58196;SDS011;43999;51.660;5.616;2022-07-23T14:34:29;6.55;;;5.50;;
58196;SDS011;43999;51.660;5.616;2022-07-23T14:36:57;5.85;;;5.25;;
58196;SDS011;43999;51.660;5.616;2022-07-23T14:39:26;6.22;;;5.63;;
58196;SDS011;43999;51.660;5.616;2022-07-23T14:41:55;4.85;;;4.35;;
58196;SDS011;43999;51.660;5.616;2022-07-23T14:44:23;5.45;;;4.95;;
58196;SDS011;43999;51.660;5.616;2022-07-23T14:46:50;5.50;;;4.97;;
58196;SDS011;43999;51.660;5.616;2022-07-23T14:49:18;5.13;;;4.63;;
58196;SDS011;43999;51.660;5.616;2022-07-23T14:51:45;5.53;;;4.85;;
58196;SDS011;43999;51.660;5.616;2022-07-23T14:54:13;7.22;;;5.05;;
58196;SDS011;43999;51.660;5.616;2022-07-23T14:56:41;5.30;;;4.78;;
58196;SDS011;43999;51.660;5.616;2022-07-23T14:59:09;9.55;;;4.80;;
58196;SDS011;43999;51.660;5.616;2022-07-23T15:01:37;8.05;;;4.40;;
58196;SDS011;43999;51.660;5.616;2022-07-23T15:04:05;5.40;;;4.13;;
58196;SDS011;43999;51.660;5.616;2022-07-23T15:06:53;5.18;;;4.53;;
58196;SDS011;43999;51.660;5.616;2022-07-23T15:09:20;5.78;;;5.13;;
58196;SDS011;43999;51.660;5.616;2022-07-23T15:11:48;5.65;;;5.05;;
58196;SDS011;43999;51.660;5.616;2022-07-23T15:14:15;4.85;;;4.35;;
58196;SDS011;43999;51.660;5.616;2022-07-23T15:16:54;4.80;;;4.18;;
58196;SDS011;43999;51.660;5.616;2022-07-23T15:19:22;5.07;;;4.13;;
58196;SDS011;43999;51.660;5.616;2022-07-23T15:21:50;8.65;;;5.43;;
58196;SDS011;43999;51.660;5.616;2022-07-23T15:24:17;5.85;;;5.05;;
58196;SDS011;43999;51.660;5.616;2022-07-23T15:26:44;5.75;;;5.25;;
58196;SDS011;43999;51.660;5.616;2022-07-23T15:29:12;6.40;;;5.05;;
58196;SDS011;43999;51.660;5.616;2022-07-23T15:31:39;5.40;;;4.95;;
58196;SDS011;43999;51.660;5.616;2022-07-23T15:34:06;5.78;;;5.18;;
58196;SDS011;43999;51.660;5.616;2022-07-23T15:36:34;4.60;;;4.00;;
58196;SDS011;43999;51.660;5.616;2022-07-23T15:39:01;5.18;;;4.15;;
58196;SDS011;43999;51.660;5.616;2022-07-23T15:41:30;7.35;;;4.13;;
58196;SDS011;43999;51.660;5.616;2022-07-23T15:43:58;5.15;;;4.50;;
58196;SDS011;43999;51.660;5.616;2022-07-23T15:46:46;4.65;;;4.25;;
58196;SDS011;43999;51.660;5.616;2022-07-23T15:49:13;6.47;;;5.45;;
58196;SDS011;43999;51.660;5.616;2022-07-23T15:51:44;6.18;;;5.07;;
58196;SDS011;43999;51.660;5.616;2022-07-23T15:54:13;6.13;;;4.65;;
58196;SDS011;43999;51.660;5.616;2022-07-23T15:56:41;7.40;;;3.95;;
58196;SDS011;43999;51.660;5.616;2022-07-23T15:59:09;5.55;;;4.22;;
58196;SDS011;43999;51.660;5.616;2022-07-23T16:01:36;5.97;;;3.78;;
58196;SDS011;43999;51.660;5.616;2022-07-23T16:04:04;5.18;;;4.68;;